Time;durP1;ratioP1;P1;durP2;ratioP2;P2;SDS_P1;SDS_P2;PMS_P1;PMS_P2;Temp;Humidity;BMP_temperature;BMP_pressure;BME280_temperature;BME280_humidity;BME280_pressure;Samples;Min_cycle;Max_cycle;Signal;HPM_P1;HPM_P2
2023/10/18 00:00:28;;;;;;;3.75;1.30;;;19.80;96.70;;;;;;4987785;28;20118;-84
2023/10/18 00:02:57;;;;;;;2.30;0.98;;;19.80;96.70;;;;;;4990768;28;20557;-83
2023/10/18 00:05:26;;;;;;;3.50;1.45;;;19.90;96.70;;;;;;4988859;28;20081;-83
2023/10/18 00:07:57;;;;;;;1.42;0.80;;;19.90;96.70;;;;;;4983513;28;20050;-83
2023/10/18 00:10:27;;;;;;;1.58;1.08;;;20.00;96.70;;;;;;4986053;28;20061;-83
2023/10/18 00:12:56;;;;;;;4.55;0.90;;;19.90;96.70;;;;;;4966472;28;20117;-83
2023/10/18 00:15:24;;;;;;;1.70;0.93;;;20.00;96.70;;;;;;4987806;28;20567;-82
2023/10/18 00:17:53;;;;;;;2.40;0.90;;;19.90;96.70;;;;;;4989907;28;20507;-83
2023/10/18 00:20:25;;;;;;;3.30;1.20;;;20.00;96.70;;;;;;4989022;28;20042;-82
2023/10/18 00:22:56;;;;;;;2.58;1.23;;;19.90;96.70;;;;;;5001840;28;20061;-82
2023/10/18 00:25:26;;;;;;;2.78;0.90;;;19.80;96.70;;;;;;4962137;28;20050;-83
2023/10/18 00:27:54;;;;;;;2.20;0.88;;;19.90;96.70;;;;;;4976815;28;20126;-82
2023/10/18 00:30:23;;;;;;;3.50;1.00;;;19.80;96.70;;;;;;4994355;28;20101;-83
2023/10/18 00:32:51;;;;;;;4.68;0.95;;;19.80;96.70;;;;;;5002239;28;20069;-82
2023/10/18 00:35:31;;;;;;;3.63;0.93;;;19.90;96.70;;;;;;4992457;28;20050;-83
2023/10/18 00:38:01;;;;;;;3.13;0.95;;;19.80;96.70;;;;;;5002093;28;20054;-83
2023/10/18 00:43:04;;;;;;;3.38;1.00;;;19.80;96.70;;;;;;5003473;28;20137;-83
2023/10/18 00:45:38;;;;;;;2.00;0.90;;;19.90;96.70;;;;;;5000170;28;20042;-83
2023/10/18 00:48:07;;;;;;;2.00;1.10;;;19.90;96.70;;;;;;5000593;28;20100;-82
2023/10/18 00:50:39;;;;;;;2.17;1.00;;;19.90;96.70;;;;;;4990795;28;20148;-83
2023/10/18 00:53:09;;;;;;;2.50;1.23;;;19.90;96.70;;;;;;5005216;28;20511;-82
2023/10/18 00:55:37;;;;;;;2.58;1.00;;;19.80;96.70;;;;;;5008919;28;20049;-83
2023/10/18 00:58:11;;;;;;;2.67;0.90;;;19.80;96.70;;;;;;4999623;28;20108;-83
2023/10/18 01:00:40;;;;;;;1.48;0.88;;;19.80;96.70;;;;;;4995553;28;20041;-83
2023/10/18 01:03:51;;;;;;;3.38;1.00;;;19.80;96.70;;;;;;4991404;28;20041;-83
2023/10/18 01:06:03;;;;;;;3.45;1.05;;;19.80;96.70;;;;;;5005028;28;20057;-83
2023/10/18 01:08:39;;;;;;;2.83;0.98;;;19.80;96.70;;;;;;5001780;28;20498;-83
2023/10/18 01:11:10;;;;;;;2.38;0.98;;;19.80;96.70;;;;;;5002339;28;20054;-83
2023/10/18 01:13:42;;;;;;;2.50;1.20;;;19.80;96.70;;;;;;5004060;28;20042;-82
2023/10/18 01:16:14;;;;;;;4.32;1.00;;;19.80;96.70;;;;;;5003202;28;20053;-83
2023/10/18 01:18:44;;;;;;;4.18;1.25;;;19.80;96.70;;;;;;5017223;28;20077;-83
2023/10/18 01:21:13;;;;;;;1.45;0.88;;;19.80;96.70;;;;;;5006528;28;20052;-83
2023/10/18 01:23:49;;;;;;;2.88;1.52;;;19.80;96.70;;;;;;4996255;28;20045;-83
2023/10/18 01:26:20;;;;;;;3.70;0.90;;;19.80;96.70;;;;;;4992768;28;20073;-83
2023/10/18 01:28:48;;;;;;;4.22;1.42;;;19.80;96.70;;;;;;4986637;28;20069;-83
2023/10/18 01:31:16;;;;;;;4.03;1.05;;;19.80;96.70;;;;;;5008699;28;20057;-83
2023/10/18 01:33:47;;;;;;;3.90;1.13;;;19.70;96.70;;;;;;4997628;28;20137;-83
2023/10/18 01:36:16;;;;;;;4.97;1.27;;;19.70;96.70;;;;;;5011083;28;20809;-82
2023/10/18 01:38:48;;;;;;;3.33;1.00;;;19.70;96.70;;;;;;5003409;28;20128;-83
2023/10/18 01:41:37;;;;;;;3.38;1.00;;;19.70;96.70;;;;;;5002613;28;20045;-83
2023/10/18 01:44:06;;;;;;;3.00;0.95;;;19.80;96.70;;;;;;4986406;28;20081;-82
2023/10/18 01:46:36;;;;;;;2.10;1.00;;;19.80;96.70;;;;;;5011689;28;20099;-83
2023/10/18 01:49:06;;;;;;;2.15;1.20;;;19.80;96.70;;;;;;5001902;28;20056;-83
2023/10/18 01:51:35;;;;;;;2.33;0.93;;;19.70;96.70;;;;;;5012199;28;20041;-83
2023/10/18 01:54:12;;;;;;;2.45;1.00;;;19.70;96.70;;;;;;5002742;28;20785;-83
2023/10/18 01:56:43;;;;;;;2.42;1.10;;;19.70;96.70;;;;;;5005278;28;20054;-83
2023/10/18 01:59:14;;;;;;;3.13;1.25;;;19.70;96.70;;;;;;5001057;28;20164;-82
2023/10/18 02:01:47;;;;;;;2.20;0.95;;;19.70;96.70;;;;;;4992483;28;20712;-83
2023/10/18 02:04:31;;;;;;;1.58;0.80;;;19.50;96.70;;;;;;4988266;28;20052;-83
2023/10/18 02:07:19;;;;;;;1.75;0.90;;;19.50;96.70;;;;;;4997065;28;20712;-83
2023/10/18 02:09:48;;;;;;;2.40;1.08;;;19.60;96.70;;;;;;4992889;28;20049;-83
2023/10/18 02:12:20;;;;;;;2.20;1.23;;;19.50;96.70;;;;;;5004433;28;20060;-83
2023/10/18 02:14:50;;;;;;;2.10;0.80;;;19.40;96.70;;;;;;5002472;28;20053;-82
2023/10/18 02:17:18;;;;;;;6.95;1.10;;;19.40;96.70;;;;;;5001866;28;20038;-83
2023/10/18 02:19:48;;;;;;;2.13;0.77;;;19.40;96.70;;;;;;5026988;28;20124;-83
2023/10/18 02:22:16;;;;;;;1.75;1.10;;;19.30;96.70;;;;;;4987741;28;20046;-83
2023/10/18 02:24:44;;;;;;;1.95;0.88;;;19.30;96.70;;;;;;5022794;28;20057;-83
2023/10/18 02:27:15;;;;;;;4.05;1.00;;;19.40;96.70;;;;;;5003958;28;20045;-83
2023/10/18 02:29:46;;;;;;;3.60;1.08;;;19.50;96.70;;;;;;5008435;28;20052;-83
2023/10/18 02:32:31;;;;;;;2.90;1.15;;;19.40;96.70;;;;;;5001554;28;20060;-83
2023/10/18 02:35:04;;;;;;;1.80;0.70;;;19.50;96.70;;;;;;5013995;28;20049;-83
2023/10/18 02:37:33;;;;;;;4.10;1.00;;;19.40;96.70;;;;;;4999640;28;20042;-83
2023/10/18 02:40:28;;;;;;;3.47;1.00;;;19.50;96.70;;;;;;5008997;28;20103;-82
2023/10/18 02:42:58;;;;;;;1.95;1.00;;;19.50;96.70;;;;;;4996469;28;20038;-83
2023/10/18 02:45:30;;;;;;;1.80;0.82;;;19.50;96.70;;;;;;5001288;28;20041;-83
2023/10/18 02:48:00;;;;;;;2.45;0.88;;;19.50;96.70;;;;;;4984261;28;20050;-82
2023/10/18 02:50:30;;;;;;;2.63;0.90;;;19.40;96.70;;;;;;4998320;28;20042;-82
2023/10/18 02:53:00;;;;;;;4.40;1.25;;;19.50;96.70;;;;;;5002816;28;20045;-83
2023/10/18 02:55:28;;;;;;;2.05;0.90;;;19.40;96.70;;;;;;4989663;28;20462;-82
2023/10/18 02:57:56;;;;;;;2.88;1.00;;;19.40;96.70;;;;;;5001877;28;20046;-83
2023/10/18 03:00:25;;;;;;;4.90;1.35;;;19.40;96.70;;;;;;5004244;28;20069;-82
2023/10/18 03:02:55;;;;;;;1.83;0.90;;;19.40;96.70;;;;;;4977099;28;20058;-83
2023/10/18 03:05:24;;;;;;;1.58;0.90;;;19.30;96.70;;;;;;4989379;28;20072;-83
2023/10/18 03:07:52;;;;;;;4.55;1.20;;;19.30;96.70;;;;;;5000055;28;20080;-83
2023/10/18 03:10:32;;;;;;;2.72;1.00;;;19.20;96.70;;;;;;5027005;28;20037;-83
2023/10/18 03:13:01;;;;;;;1.65;0.80;;;19.20;96.70;;;;;;4980454;28;20647;-83
2023/10/18 03:15:29;;;;;;;2.42;0.90;;;19.30;96.70;;;;;;5004185;28;20324;-82
2023/10/18 03:18:00;;;;;;;3.00;0.95;;;19.40;96.70;;;;;;5005109;28;20049;-82
2023/10/18 03:20:28;;;;;;;2.90;0.93;;;19.30;96.70;;;;;;5005255;28;20868;-83
2023/10/18 03:23:02;;;;;;;1.33;0.75;;;19.40;96.70;;;;;;4993581;28;20119;-83
2023/10/18 03:25:34;;;;;;;2.22;0.98;;;19.40;96.70;;;;;;4992336;28;20145;-83
2023/10/18 03:28:04;;;;;;;3.10;0.90;;;19.40;96.70;;;;;;5026136;28;20049;-83
2023/10/18 03:30:45;;;;;;;2.58;1.00;;;19.40;96.70;;;;;;5008364;28;20103;-82
2023/10/18 03:33:16;;;;;;;6.40;1.10;;;19.40;96.70;;;;;;4990655;28;20049;-82
2023/10/18 03:35:46;;;;;;;3.45;1.08;;;19.30;96.70;;;;;;4992092;28;20046;-83
2023/10/18 03:38:17;;;;;;;2.60;1.08;;;19.30;96.70;;;;;;5007534;28;20068;-83
2023/10/18 03:40:56;;;;;;;2.72;0.80;;;19.30;96.70;;;;;;5003626;28;20520;-83
2023/10/18 03:43:32;;;;;;;3.22;1.05;;;19.30;96.70;;;;;;4992002;28;20054;-83
2023/10/18 03:46:18;;;;;;;2.90;1.03;;;19.30;96.70;;;;;;5007705;28;20059;-83
2023/10/18 03:49:01;;;;;;;1.63;1.02;;;19.30;96.70;;;;;;4979313;28;20043;-83
2023/10/18 03:51:30;;;;;;;2.00;1.15;;;19.20;96.70;;;;;;4992782;28;20054;-83
2023/10/18 03:54:00;;;;;;;3.97;0.90;;;19.20;96.70;;;;;;4994145;28;20039;-83
2023/10/18 03:56:32;;;;;;;2.97;1.02;;;19.30;96.70;;;;;;4991503;28;20613;-83
2023/10/18 03:59:09;;;;;;;2.50;1.10;;;19.30;96.70;;;;;;5022357;28;20039;-83
2023/10/18 04:01:41;;;;;;;4.47;1.30;;;19.30;96.70;;;;;;4987359;28;20059;-83
2023/10/18 04:04:18;;;;;;;2.15;1.00;;;19.20;96.70;;;;;;5020866;28;20057;-83
2023/10/18 04:06:49;;;;;;;;;;;19.20;96.70;;;;;;4984617;28;20060;-82
2023/10/18 04:09:18;;;;;;;1.80;1.00;;;19.10;96.70;;;;;;5008582;28;19931;-83
2023/10/18 04:11:48;;;;;;;2.08;1.10;;;19.10;96.70;;;;;;5008668;28;20160;-82
2023/10/18 04:14:16;;;;;;;3.78;1.17;;;19.10;96.70;;;;;;5017319;28;20041;-83
2023/10/18 04:16:47;;;;;;;4.40;1.10;;;19.20;96.70;;;;;;4983588;28;20107;-83
2023/10/18 04:19:19;;;;;;;1.67;0.88;;;19.10;96.70;;;;;;4987786;28;20503;-83
2023/10/18 04:21:52;;;;;;;3.58;0.88;;;19.10;96.70;;;;;;4990783;28;20510;-82
2023/10/18 04:24:20;;;;;;;4.75;1.27;;;19.10;96.70;;;;;;5006321;28;20516;-83
2023/10/18 04:26:49;;;;;;;1.92;0.93;;;19.10;96.70;;;;;;4989910;28;20042;-83
2023/10/18 04:29:23;;;;;;;3.45;1.00;;;19.10;96.70;;;;;;4999681;28;20534;-83
2023/10/18 04:31:52;;;;;;;2.30;1.13;;;19.10;96.70;;;;;;4999952;28;20068;-83
2023/10/18 04:34:24;;;;;;;2.47;1.00;;;19.00;96.70;;;;;;5026153;28;20483;-82
2023/10/18 04:36:55;;;;;;;2.40;1.38;;;19.00;96.70;;;;;;5009115;28;20050;-83
2023/10/18 04:39:26;;;;;;;3.40;1.08;;;19.00;96.70;;;;;;5000790;28;20049;-83
2023/10/18 04:41:55;;;;;;;4.50;1.25;;;19.00;96.70;;;;;;5001989;28;20042;-83
2023/10/18 04:44:24;;;;;;;3.45;1.20;;;18.90;96.70;;;;;;4999471;28;20042;-83
2023/10/18 04:46:53;;;;;;;2.97;1.73;;;18.90;96.70;;;;;;5011911;28;20502;-82
2023/10/18 04:49:31;;;;;;;2.78;1.35;;;18.80;96.70;;;;;;5012115;28;20050;-82
2023/10/18 04:52:04;;;;;;;2.40;1.20;;;18.70;96.70;;;;;;5012285;28;20096;-83
2023/10/18 04:54:37;;;;;;;3.45;1.30;;;18.70;96.70;;;;;;5012082;28;20049;-83
2023/10/18 04:57:10;;;;;;;5.18;1.38;;;18.70;96.70;;;;;;5029088;28;20041;-82
2023/10/18 04:59:52;;;;;;;1.40;0.90;;;18.70;96.70;;;;;;5011258;28;20050;-82
2023/10/18 05:02:26;;;;;;;3.00;1.00;;;18.80;96.70;;;;;;5006910;28;20073;-82
2023/10/18 05:04:57;;;;;;;6.20;1.50;;;18.70;96.70;;;;;;5004041;28;20491;-82
2023/10/18 05:07:47;;;;;;;4.47;1.60;;;18.80;96.70;;;;;;5020472;28;20044;-82
2023/10/18 05:10:16;;;;;;;4.03;1.60;;;18.80;96.70;;;;;;5015649;28;20051;-82
2023/10/18 05:13:10;;;;;;;4.72;1.83;;;18.70;96.70;;;;;;4997680;28;20044;-82
2023/10/18 05:15:34;;;;;;;4.65;1.95;;;18.70;96.70;;;;;;5029035;28;20060;-82
2023/10/18 05:18:14;;;;;;;4.85;2.30;;;18.70;96.70;;;;;;5029412;28;20069;-82
2023/10/18 05:20:56;;;;;;;3.90;2.35;;;18.80;96.70;;;;;;5020710;28;20176;-83
2023/10/18 05:23:25;;;;;;;6.40;2.63;;;18.70;96.70;;;;;;5011439;28;20497;-82
2023/10/18 05:26:08;;;;;;;3.08;1.90;;;18.70;96.70;;;;;;4993555;28;20038;-82
2023/10/18 05:28:47;;;;;;;3.47;1.85;;;18.70;96.70;;;;;;5004783;28;20061;-82
2023/10/18 05:37:12;;;;;;;3.80;1.65;;;18.60;96.70;;;;;;5000323;28;20057;-82
2023/10/18 05:42:03;;;;;;;6.25;1.70;;;18.40;96.70;;;;;;5005583;28;20042;-83
2023/10/18 05:44:32;;;;;;;4.15;1.45;;;18.40;96.70;;;;;;5003584;28;20050;-83
2023/10/18 05:47:06;;;;;;;3.47;1.52;;;18.40;96.70;;;;;;5008640;28;20054;-83
2023/10/18 05:49:41;;;;;;;4.60;1.52;;;18.40;96.70;;;;;;4998534;28;20046;-83
2023/10/18 05:54:38;;;;;;;7.95;4.78;;;18.20;96.70;;;;;;5000074;28;20045;-83
2023/10/18 05:57:08;;;;;;;8.75;4.72;;;18.20;96.70;;;;;;5004421;28;20062;-83
2023/10/18 05:59:36;;;;;;;5.90;4.07;;;18.20;96.70;;;;;;5002162;28;20042;-83
2023/10/18 06:04:51;;;;;;;5.85;3.85;;;18.20;96.70;;;;;;5000246;28;20061;-83
2023/10/18 06:07:24;;;;;;;5.97;3.53;;;18.30;96.70;;;;;;4999858;28;20099;-84
2023/10/18 06:09:58;;;;;;;5.00;3.13;;;18.20;96.70;;;;;;5006197;28;20038;-82
2023/10/18 06:12:30;;;;;;;5.45;2.83;;;18.10;96.70;;;;;;5003820;28;20043;-81
2023/10/18 06:15:10;;;;;;;5.18;2.92;;;18.20;96.70;;;;;;4988668;28;20050;-81
2023/10/18 06:17:47;;;;;;;3.35;2.50;;;18.10;96.70;;;;;;5003599;28;20580;-81
2023/10/18 06:20:28;;;;;;;3.95;2.38;;;18.10;96.70;;;;;;5005027;28;20070;-79
2023/10/18 06:25:49;;;;;;;3.88;1.65;;;17.90;96.70;;;;;;5003661;28;20080;-77
2023/10/18 06:28:21;;;;;;;4.20;1.98;;;17.90;96.70;;;;;;5002486;28;20100;-78
2023/10/18 06:30:53;;;;;;;4.03;1.95;;;17.90;96.70;;;;;;4993000;28;20050;-79
2023/10/18 06:33:26;;;;;;;4.32;1.80;;;17.90;96.70;;;;;;4989145;28;20501;-78
2023/10/18 06:35:54;;;;;;;4.05;1.98;;;18.00;96.70;;;;;;4978696;28;20085;-78
2023/10/18 06:38:24;;;;;;;3.53;2.00;;;18.00;96.70;;;;;;4984054;28;20046;-79
2023/10/18 06:41:03;;;;;;;3.50;1.60;;;18.00;96.70;;;;;;4998364;28;20054;-79
2023/10/18 06:43:36;;;;;;;3.25;2.25;;;17.90;96.70;;;;;;5001189;28;20049;-78
2023/10/18 06:46:08;;;;;;;4.05;1.95;;;18.00;96.70;;;;;;4981703;28;20062;-78
2023/10/18 06:48:37;;;;;;;4.97;2.30;;;18.00;96.70;;;;;;4987436;28;20144;-78
2023/10/18 06:51:17;;;;;;;4.88;2.00;;;18.00;96.70;;;;;;4995574;28;20440;-79
2023/10/18 06:53:53;;;;;;;3.63;2.10;;;18.00;96.70;;;;;;5004715;28;20058;-78
2023/10/18 06:56:21;;;;;;;4.07;2.28;;;18.00;96.70;;;;;;5003670;28;20076;-77
2023/10/18 06:58:48;;;;;;;4.93;2.25;;;18.00;96.70;;;;;;4996462;28;20042;-79
2023/10/18 07:01:19;;;;;;;6.68;2.42;;;18.10;96.70;;;;;;5003269;28;20046;-79
2023/10/18 07:03:49;;;;;;;4.18;1.80;;;18.10;96.70;;;;;;5001515;28;20048;-79
2023/10/18 07:06:24;;;;;;;3.80;1.77;;;18.10;96.70;;;;;;4996442;28;20133;-79
2023/10/18 07:08:54;;;;;;;2.53;1.65;;;18.10;96.70;;;;;;5002342;28;20057;-78
2023/10/18 07:11:23;;;;;;;3.88;2.00;;;18.10;96.70;;;;;;4987359;28;20174;-79
2023/10/18 07:14:04;;;;;;;3.88;1.65;;;18.20;96.70;;;;;;5004080;28;20389;-78
2023/10/18 07:19:06;;;;;;;3.30;1.58;;;18.10;96.70;;;;;;5000269;28;20082;-78
2023/10/18 07:21:35;;;;;;;2.88;1.55;;;18.20;96.70;;;;;;4978281;28;20049;-78
2023/10/18 07:24:11;;;;;;;3.00;1.77;;;18.20;96.70;;;;;;4995980;28;20084;-78
2023/10/18 07:26:39;;;;;;;2.42;1.45;;;18.20;96.70;;;;;;4998312;28;20046;-78
2023/10/18 07:29:07;;;;;;;2.85;1.67;;;18.20;96.70;;;;;;4994690;28;20126;-78
2023/10/18 07:31:38;;;;;;;2.28;1.60;;;18.20;96.70;;;;;;5006044;28;20064;-78
2023/10/18 07:34:08;;;;;;;2.05;1.50;;;18.20;96.70;;;;;;5006805;28;20530;-77
2023/10/18 07:36:39;;;;;;;4.25;1.90;;;18.20;96.70;;;;;;5011969;28;20417;-78
2023/10/18 07:39:11;;;;;;;2.92;1.48;;;18.20;96.70;;;;;;4997745;28;20056;-77
2023/10/18 07:41:40;;;;;;;1.88;1.48;;;18.20;96.70;;;;;;4996691;28;20411;-77
2023/10/18 07:44:08;;;;;;;4.07;2.10;;;18.20;96.70;;;;;;5015371;28;20044;-78
2023/10/18 07:46:50;;;;;;;4.38;2.05;;;18.20;96.70;;;;;;4959990;28;20057;-78
2023/10/18 07:49:18;;;;;;;3.05;1.80;;;18.10;96.70;;;;;;4930370;28;20070;-77
2023/10/18 07:51:50;;;;;;;2.85;1.80;;;18.00;96.70;;;;;;4946547;28;20102;-76
2023/10/18 07:54:21;;;;;;;4.53;1.98;;;17.90;96.70;;;;;;4961790;28;20126;-79
2023/10/18 07:56:49;;;;;;;2.65;1.40;;;18.10;96.70;;;;;;4943104;28;20063;-78
2023/10/18 07:59:33;;;;;;;3.90;1.58;;;18.10;96.70;;;;;;4957794;28;20051;-78
2023/10/18 08:04:50;;;;;;;2.63;1.80;;;18.20;96.70;;;;;;4958061;28;20111;-78
2023/10/18 08:07:27;;;;;;;3.92;1.35;;;18.20;96.70;;;;;;4942770;28;20063;-77
2023/10/18 08:09:58;;;;;;;4.10;1.63;;;18.20;96.70;;;;;;4962284;28;20360;-78
2023/10/18 08:12:28;;;;;;;3.15;1.60;;;18.30;96.70;;;;;;4944236;28;20047;-78
2023/10/18 08:14:57;;;;;;;3.47;1.88;;;18.30;96.70;;;;;;4942115;28;20063;-77
2023/10/18 08:17:44;;;;;;;2.45;1.52;;;18.30;96.70;;;;;;4964124;28;20053;-77
2023/10/18 08:22:53;;;;;;;3.42;1.52;;;18.20;96.70;;;;;;4997968;28;20061;-78
2023/10/18 08:25:42;;;;;;;3.28;1.70;;;18.20;96.70;;;;;;5004773;28;20511;-78
2023/10/18 08:28:13;;;;;;;2.55;1.35;;;18.20;96.70;;;;;;5000217;28;20574;-79
2023/10/18 08:33:10;;;;;;;2.42;1.20;;;18.30;96.70;;;;;;5017242;28;20518;-79
2023/10/18 08:35:38;;;;;;;2.63;1.40;;;18.30;96.70;;;;;;4987730;28;20107;-79
2023/10/18 08:38:06;;;;;;;2.80;1.55;;;18.30;96.70;;;;;;5006187;28;20069;-79
2023/10/18 08:40:38;;;;;;;3.25;1.65;;;18.30;96.70;;;;;;5015215;28;20057;-79
2023/10/18 08:43:15;;;;;;;1.88;1.20;;;18.20;96.70;;;;;;4995796;28;20050;-78
2023/10/18 08:45:46;;;;;;;3.38;1.30;;;18.20;96.70;;;;;;5004421;28;20454;-80
2023/10/18 08:48:21;;;;;;;2.45;1.40;;;18.20;96.70;;;;;;4997712;28;20050;-80
2023/10/18 08:50:50;;;;;;;5.82;1.40;;;18.20;96.70;;;;;;5018714;28;20557;-80
2023/10/18 08:53:22;;;;;;;3.50;1.20;;;18.20;96.70;;;;;;4989856;28;20050;-79
2023/10/18 08:55:57;;;;;;;2.58;1.27;;;18.20;96.70;;;;;;4981253;28;20050;-79
2023/10/18 08:58:28;;;;;;;3.45;1.88;;;18.10;96.70;;;;;;4997004;28;20052;-79
2023/10/18 09:03:27;;;;;;;3.05;1.92;;;18.10;96.70;;;;;;5015391;28;20133;-78
2023/10/18 09:06:05;;;;;;;3.50;1.98;;;18.10;96.70;;;;;;5015002;28;20522;-78
2023/10/18 09:09:00;;;;;;;3.83;1.80;;;18.00;96.70;;;;;;4999038;28;20450;-79
2023/10/18 09:11:31;;;;;;;3.72;2.15;;;18.00;96.70;;;;;;5013210;28;20046;-80
2023/10/18 09:14:10;;;;;;;3.05;1.67;;;18.00;96.70;;;;;;5016558;28;20045;-80
2023/10/18 09:16:40;;;;;;;2.67;1.85;;;18.00;96.70;;;;;;5015225;28;20149;-79
2023/10/18 09:19:09;;;;;;;4.28;2.10;;;18.10;96.70;;;;;;5022722;28;20450;-78
2023/10/18 09:21:57;;;;;;;3.00;1.65;;;18.00;96.70;;;;;;5014564;28;20416;-79
2023/10/18 09:24:30;;;;;;;2.15;1.35;;;18.00;96.70;;;;;;5004723;28;20077;-78
2023/10/18 09:27:00;;;;;;;3.50;1.50;;;18.00;96.70;;;;;;5008762;28;20136;-78
2023/10/18 09:29:29;;;;;;;3.75;1.52;;;18.00;96.70;;;;;;5000196;28;20042;-80
2023/10/18 09:32:10;;;;;;;3.65;1.80;;;18.00;96.70;;;;;;4983463;28;20069;-79
2023/10/18 09:34:42;;;;;;;3.70;1.52;;;18.10;96.70;;;;;;4978146;28;20480;-79
2023/10/18 09:37:11;;;;;;;2.40;1.13;;;18.20;96.70;;;;;;4991776;28;20144;-79
2023/10/18 09:39:43;;;;;;;2.72;1.50;;;18.20;96.70;;;;;;4990715;28;20042;-79
2023/10/18 09:42:15;;;;;;;2.05;1.35;;;18.20;96.70;;;;;;5000149;28;20108;-78
2023/10/18 09:44:44;;;;;;;1.95;1.50;;;18.30;96.70;;;;;;5008550;28;20049;-79
2023/10/18 09:47:13;;;;;;;3.85;2.00;;;18.20;96.70;;;;;;4991969;28;20052;-79
2023/10/18 09:49:41;;;;;;;3.72;1.63;;;18.20;96.70;;;;;;5008879;28;20083;-80
2023/10/18 09:52:12;;;;;;;3.45;1.52;;;18.20;96.70;;;;;;5019972;28;20107;-79
2023/10/18 09:54:49;;;;;;;1.63;1.30;;;18.20;96.70;;;;;;5010630;28;20049;-78
2023/10/18 09:57:35;;;;;;;2.75;1.50;;;18.10;96.70;;;;;;5002424;28;20152;-80
2023/10/18 10:00:13;;;;;;;2.28;1.67;;;18.10;96.70;;;;;;4991783;28;20547;-80
2023/10/18 10:02:43;;;;;;;2.15;1.20;;;18.10;96.70;;;;;;5017802;28;20054;-76
2023/10/18 10:05:24;;;;;;;2.42;1.50;;;18.20;96.70;;;;;;5000830;28;20099;-79
2023/10/18 10:07:56;;;;;;;3.90;1.27;;;18.20;96.70;;;;;;4998781;28;20179;-78
2023/10/18 10:10:43;;;;;;;3.30;1.50;;;18.20;96.70;;;;;;5015734;28;20045;-80
2023/10/18 10:13:27;;;;;;;3.78;1.50;;;18.20;96.70;;;;;;4998728;28;20077;-79
2023/10/18 10:15:59;;;;;;;5.63;1.55;;;18.20;96.70;;;;;;4999162;28;20518;-78
2023/10/18 10:18:30;;;;;;;4.05;1.65;;;18.20;96.70;;;;;;5000559;28;20057;-79
2023/10/18 10:21:06;;;;;;;2.65;1.30;;;18.30;96.70;;;;;;4988029;28;20417;-79
2023/10/18 10:23:39;;;;;;;2.53;1.45;;;18.30;96.70;;;;;;4992002;28;20084;-80
2023/10/18 10:26:12;;;;;;;3.55;1.55;;;18.40;96.70;;;;;;4997907;28;20407;-80
2023/10/18 10:31:55;;;;;;;2.85;1.40;;;18.50;96.70;;;;;;5002802;28;20144;-80
2023/10/18 10:34:24;;;;;;;2.97;1.40;;;18.40;96.70;;;;;;4992977;28;20045;-79
2023/10/18 10:37:03;;;;;;;3.25;1.40;;;18.40;96.70;;;;;;5002773;28;20046;-80
2023/10/18 10:39:32;;;;;;;3.63;1.50;;;18.40;96.70;;;;;;5002753;28;20046;-80
2023/10/18 10:42:08;;;;;;;2.88;1.38;;;18.40;96.70;;;;;;4990268;28;20516;-79
2023/10/18 10:44:57;;;;;;;2.73;1.27;;;18.40;96.70;;;;;;4978468;28;20072;-79
2023/10/18 10:47:29;;;;;;;4.40;1.63;;;18.40;96.70;;;;;;5017685;28;20296;-78
2023/10/18 10:49:58;;;;;;;2.05;1.23;;;18.40;96.70;;;;;;5006293;28;20095;-80
2023/10/18 10:52:31;;;;;;;3.22;1.50;;;18.30;96.70;;;;;;5004162;28;20041;-78
2023/10/18 10:55:02;;;;;;;3.03;1.77;;;18.40;96.70;;;;;;4993885;28;20050;-80
2023/10/18 10:57:35;;;;;;;3.38;1.70;;;18.40;96.70;;;;;;4999927;28;20056;-79
2023/10/18 11:00:22;;;;;;;4.63;2.00;;;18.40;96.70;;;;;;5005550;28;20068;-80
2023/10/18 11:02:54;;;;;;;2.88;1.98;;;18.40;96.70;;;;;;5006113;28;20103;-79
2023/10/18 11:05:24;;;;;;;2.90;1.60;;;18.40;96.70;;;;;;5017496;28;20042;-79
2023/10/18 11:07:53;;;;;;;4.03;1.98;;;18.40;96.70;;;;;;4988241;28;20317;-80
2023/10/18 11:10:23;;;;;;;3.38;1.95;;;18.40;96.70;;;;;;5007022;28;20037;-83
2023/10/18 11:12:52;;;;;;;2.97;1.77;;;18.40;96.70;;;;;;5011263;28;20153;-85
2023/10/18 11:15:27;;;;;;;4.57;2.03;;;18.40;96.70;;;;;;5010256;28;20053;-83
2023/10/18 11:18:09;;;;;;;5.55;2.00;;;18.50;96.70;;;;;;5006420;28;20049;-83
2023/10/18 11:23:27;;;;;;;3.60;2.05;;;18.50;96.70;;;;;;5004605;28;20046;-85
2023/10/18 11:25:59;;;;;;;3.53;1.80;;;18.50;96.70;;;;;;4996648;28;20664;-84
2023/10/18 11:28:30;;;;;;;3.03;1.60;;;18.50;96.70;;;;;;5026643;28;20091;-86
2023/10/18 11:31:02;;;;;;;5.43;1.80;;;18.50;96.70;;;;;;5027566;28;20061;-85
2023/10/18 11:33:45;;;;;;;2.58;1.73;;;18.40;96.70;;;;;;4995954;28;20084;-85
2023/10/18 11:36:20;;;;;;;3.80;1.50;;;18.50;96.70;;;;;;5018413;28;20124;-85
2023/10/18 11:39:07;;;;;;;5.07;1.50;;;18.50;96.70;;;;;;4993725;28;20057;-84
2023/10/18 11:41:36;;;;;;;3.63;1.85;;;18.50;96.70;;;;;;5005927;28;20636;-84
2023/10/18 11:44:08;;;;;;;4.47;1.60;;;18.40;96.70;;;;;;5002861;28;20042;-87
2023/10/18 11:46:51;;;;;;;4.18;1.92;;;18.40;96.70;;;;;;4971736;28;20133;-85
2023/10/18 11:49:20;;;;;;;4.15;2.08;;;18.40;96.70;;;;;;4961013;28;20688;-84
2023/10/18 11:51:50;;;;;;;4.03;2.10;;;18.50;96.70;;;;;;4969609;28;20522;-85
2023/10/18 11:54:29;;;;;;;5.00;1.75;;;18.50;96.70;;;;;;4970098;28;20077;-85
2023/10/18 11:56:57;;;;;;;3.00;1.63;;;18.50;96.70;;;;;;4959167;28;20065;-82
2023/10/18 11:59:28;;;;;;;3.97;2.20;;;18.60;96.70;;;;;;4964906;28;20405;-81
2023/10/18 12:01:58;;;;;;;5.18;1.67;;;18.70;96.70;;;;;;4966011;28;20055;-80
2023/10/18 12:04:37;;;;;;;3.33;1.38;;;18.70;96.70;;;;;;4959341;28;20129;-81
2023/10/18 12:07:08;;;;;;;2.63;1.73;;;18.70;96.70;;;;;;4960686;28;20058;-83
2023/10/18 12:09:45;;;;;;;3.25;1.60;;;18.70;96.70;;;;;;4962636;28;20056;-83
2023/10/18 12:12:13;;;;;;;3.80;2.15;;;18.80;96.70;;;;;;4978503;28;20062;-84
2023/10/18 12:14:42;;;;;;;2.22;1.77;;;18.90;96.70;;;;;;4959105;28;20594;-84
2023/10/18 12:17:13;;;;;;;2.55;1.85;;;18.90;96.70;;;;;;4970979;28;20045;-84
2023/10/18 12:19:41;;;;;;;2.25;1.85;;;18.90;96.70;;;;;;5000523;28;20053;-80
2023/10/18 12:22:15;;;;;;;3.55;1.80;;;18.90;96.70;;;;;;5000692;28;20115;-81
2023/10/18 12:24:43;;;;;;;4.07;2.00;;;19.00;96.70;;;;;;5010336;28;20052;-84
2023/10/18 12:29:59;;;;;;;4.50;2.30;;;19.00;96.70;;;;;;4993523;28;20054;-85
2023/10/18 12:32:31;;;;;;;3.53;1.90;;;19.10;96.70;;;;;;5009092;28;20084;-85
2023/10/18 12:35:06;;;;;;;3.47;2.20;;;19.10;96.70;;;;;;4987290;28;20054;-84
2023/10/18 12:37:40;;;;;;;2.27;1.83;;;19.10;96.70;;;;;;5000962;28;20041;-85
2023/10/18 12:43:19;;;;;;;5.68;2.50;;;19.10;96.70;;;;;;4957294;28;20051;-85
2023/10/18 12:45:51;;;;;;;2.72;2.00;;;19.00;96.70;;;;;;5001196;28;20062;-83
2023/10/18 12:48:23;;;;;;;3.15;1.80;;;19.00;96.70;;;;;;5005039;28;20046;-84
2023/10/18 12:50:52;;;;;;;2.60;2.10;;;19.00;96.70;;;;;;4999819;28;20703;-84
2023/10/18 12:55:57;;;;;;;2.03;1.83;;;19.10;96.70;;;;;;5018919;28;20049;-84
2023/10/18 12:58:32;;;;;;;3.47;2.00;;;19.10;96.70;;;;;;5023406;28;20559;-84
2023/10/18 13:01:05;;;;;;;3.38;2.22;;;19.20;96.70;;;;;;5006581;28;20559;-85
2023/10/18 13:03:38;;;;;;;3.05;2.00;;;19.30;96.70;;;;;;5004822;28;20072;-84
2023/10/18 13:06:08;;;;;;;3.08;2.38;;;19.40;96.70;;;;;;5013209;28;20052;-84
2023/10/18 13:08:37;;;;;;;2.85;2.10;;;19.50;96.70;;;;;;5021151;28;20045;-85
2023/10/18 13:13:33;;;;;;;3.13;1.92;;;19.60;96.70;;;;;;4999933;28;20061;-84
2023/10/18 13:16:01;;;;;;;2.67;1.73;;;19.60;96.70;;;;;;5028947;28;20312;-84
2023/10/18 13:18:29;;;;;;;2.97;2.03;;;19.80;96.70;;;;;;5020450;28;20316;-85
2023/10/18 13:21:07;;;;;;;2.08;1.70;;;19.90;96.70;;;;;;5003403;28;20055;-84
2023/10/18 13:23:36;;;;;;;4.13;1.60;;;20.00;96.70;;;;;;5002931;28;20096;-84
2023/10/18 13:26:04;;;;;;;1.77;1.33;;;20.00;96.70;;;;;;5021249;28;20116;-85
2023/10/18 13:28:36;;;;;;;3.47;1.77;;;20.00;96.70;;;;;;4995229;28;20046;-85
2023/10/18 13:31:09;;;;;;;2.78;1.70;;;19.90;96.70;;;;;;5004193;28;20049;-84
2023/10/18 13:33:38;;;;;;;1.60;1.50;;;19.90;96.70;;;;;;5012213;28;20487;-85
2023/10/18 13:36:13;;;;;;;2.30;1.60;;;19.80;96.70;;;;;;5012063;28;20073;-84
2023/10/18 13:38:41;;;;;;;2.40;2.00;;;19.80;96.70;;;;;;5029532;28;20060;-85
2023/10/18 13:41:12;;;;;;;1.98;1.63;;;19.90;96.70;;;;;;4995443;28;20041;-85
2023/10/18 13:43:40;;;;;;;2.00;1.65;;;19.90;96.70;;;;;;5003471;28;20052;-85
2023/10/18 13:46:20;;;;;;;3.80;1.90;;;19.90;96.70;;;;;;4998195;28;20045;-84
2023/10/18 13:48:51;;;;;;;2.63;1.88;;;19.90;96.70;;;;;;5029970;28;20555;-84
2023/10/18 13:51:20;;;;;;;3.13;1.80;;;19.90;96.70;;;;;;4994624;28;20076;-84
2023/10/18 13:53:50;;;;;;;2.85;1.40;;;19.90;96.70;;;;;;4988762;28;20046;-84
2023/10/18 13:56:21;;;;;;;2.08;1.50;;;19.70;96.70;;;;;;4999817;28;20034;-84
2023/10/18 13:58:49;;;;;;;3.20;2.10;;;19.60;96.70;;;;;;5002504;28;20084;-85
2023/10/18 14:01:22;;;;;;;3.03;1.80;;;19.60;96.70;;;;;;5010207;28;20041;-84
2023/10/18 14:03:51;;;;;;;2.03;1.80;;;19.60;96.70;;;;;;4995205;28;20054;-85